CY-0004 weather

Kingsfield Air Base
Larnarca District, Cyprus

Public forecast

Using degrees Celsius for public forecast. Weather courtesy of forecast.io.

METAR (pilot weather report)

Closest report is Larnaca International Airport, 9.5 nm (17.6 km) SSW. Retrieved 2019/06/16 09:30 UTC (0 seconds ago):

LCLK 160930Z 19013KT 9999 FEW028TCU FEW032CB 30/21 Q1007 NOSIG

TAF (pilot weather forecast)

Closest forecast is Larnaca International Airport, 9.5 nm (17.6 km) SSW. Retrieved 2019/06/16 06:30 UTC (3 hours ago):

TAF LCLK 160530Z 1606/1706 21006KT CAVOK BECMG 1607/1611 21018KT BECMG 1617/1621 24006KT PROB30 1622/1705 5000 BR BKN008 PROB30 TEMPO 1700/1705 0800 BCFG BKN002